Time;durP1;ratioP1;P1;durP2;ratioP2;P2;SDS_P1;SDS_P2;PMS_P1;PMS_P2;Temp;Humidity;BMP_temperature;BMP_pressure;BME280_temperature;BME280_humidity;BME280_pressure;Samples;Min_cycle;Max_cycle;Signal;HPM_P1;HPM_P2
2022/10/31 00:00:17;;;;;;;;;;;;;;;15.77;67.71;100531.00;4436302;32;20362;-77
2022/10/31 00:02:44;;;;;;;;;;;;;;;15.90;67.08;100534.53;4431386;32;19978;-83
2022/10/31 00:05:11;;;;;;;;;;;;;;;16.17;65.96;100533.78;4431402;32;20007;-79
2022/10/31 00:07:38;;;;;;;;;;;;;;;16.21;65.92;100535.56;4440006;32;19982;-78
2022/10/31 00:10:05;;;;;;;;;;;;;;;16.36;65.51;100544.31;4445726;32;19977;-77
2022/10/31 00:12:32;;;;;;;;;;;;;;;16.49;65.06;100540.88;4437788;32;19989;-77
2022/10/31 00:14:59;;;;;;;;;;;;;;;16.42;65.45;100539.13;4451606;32;20048;-78
2022/10/31 00:17:25;;;;;;;;;;;;;;;16.43;65.48;100535.63;4430084;32;20456;-77
2022/10/31 00:19:52;;;;;;;;;;;;;;;16.27;66.24;100535.59;4432535;32;19985;-81
2022/10/31 00:22:19;;;;;;;;;;;;;;;16.22;66.46;100533.81;4430104;32;20708;-78
2022/10/31 00:24:46;;;;;;;;;;;;;;;16.27;66.19;100527.75;4431605;32;19985;-78
2022/10/31 00:27:12;;;;;;;;;;;;;;;16.53;65.25;100529.59;4431926;32;19981;-77
2022/10/31 00:29:39;;;;;;;;;;;;;;;16.58;65.16;100529.59;4440052;32;20023;-78
2022/10/31 00:32:06;;;;;;;;;;;;;;;16.31;66.08;100520.81;4444691;32;19982;-78
2022/10/31 00:34:33;;;;;;;;;;;;;;;16.21;66.41;100519.91;4438270;32;19982;-78
2022/10/31 00:37:00;;;;;;;;;;;;;;;15.81;67.44;100514.47;4430934;32;20035;-77
2022/10/31 00:39:27;;;;;;;;;;;;;;;15.70;67.55;100521.38;4431619;32;20418;-78
2022/10/31 00:41:54;;;;;;;;;;;;;;;15.83;67.25;100516.25;4433478;32;19996;-78
2022/10/31 00:44:20;;;;;;;;;;;;;;;16.24;65.46;100514.69;4438145;32;20031;-78
2022/10/31 00:46:47;;;;;;;;;;;;;;;16.33;65.34;100515.56;4431612;32;20327;-78
2022/10/31 00:49:18;;;;;;;;;;;;;;;16.35;65.32;100516.47;4442964;32;20324;-82
2022/10/31 00:51:45;;;;;;;;;;;;;;;16.35;65.26;100511.22;4431041;32;20039;-78
2022/10/31 00:54:12;;;;;;;;;;;;;;;16.18;65.91;100508.56;4431520;32;19981;-78
2022/10/31 00:56:39;;;;;;;;;;;;;;;16.22;65.75;100505.97;4438581;32;20019;-78
2022/10/31 00:59:07;;;;;;;;;;;;;;;16.21;66.12;100504.22;4432490;32;20680;-78
2022/10/31 01:01:34;;;;;;;;;;;;;;;16.34;65.43;100504.28;4417598;32;20020;-78
2022/10/31 01:04:02;;;;;;;;;;;;;;;16.38;65.27;100508.63;4438161;32;20053;-78
2022/10/31 01:06:31;;;;;;;;;;;;;;;16.39;65.19;100512.97;4432832;32;20012;-78
2022/10/31 01:08:58;;;;;;;;;;;;;;;16.33;65.54;100510.34;4438359;32;19996;-81
2022/10/31 01:11:25;;;;;;;;;;;;;;;16.40;65.33;100514.72;4438720;32;20009;-78
2022/10/31 01:13:53;;;;;;;;;;;;;;;15.98;66.34;100511.06;4439782;32;19981;-77
2022/10/31 01:16:22;;;;;;;;;;;;;;;16.06;66.30;100513.72;4431370;32;19981;-78
2022/10/31 01:18:49;;;;;;;;;;;;;;;16.26;65.31;100512.94;4438235;32;20010;-78
2022/10/31 01:21:17;;;;;;;;;;;;;;;16.42;64.47;100507.75;4432550;32;19978;-78
2022/10/31 01:23:44;;;;;;;;;;;;;;;16.47;64.23;100501.69;4431726;32;19989;-78
2022/10/31 01:26:11;;;;;;;;;;;;;;;16.25;64.92;100511.19;4445524;32;19985;-81
2022/10/31 01:28:40;;;;;;;;;;;;;;;16.24;65.30;100506.84;4436941;32;20323;-77
2022/10/31 01:31:08;;;;;;;;;;;;;;;16.02;66.06;100507.63;4423405;32;19989;-77
2022/10/31 01:33:35;;;;;;;;;;;;;;;16.31;65.05;100504.25;4438845;32;20023;-78
2022/10/31 01:36:10;;;;;;;;;;;;;;;16.38;64.80;100500.78;4442947;32;20327;-78
2022/10/31 01:38:37;;;;;;;;;;;;;;;16.31;65.15;100504.25;4421968;32;19981;-78
2022/10/31 01:41:04;;;;;;;;;;;;;;;16.46;64.66;100499.06;4443000;32;19995;-78
2022/10/31 01:43:49;;;;;;;;;;;;;;;16.23;65.34;100494.63;4431728;32;19989;-78
2022/10/31 01:46:18;;;;;;;;;;;;;;;16.39;64.99;100497.31;4439271;32;19981;-78
2022/10/31 01:48:45;;;;;;;;;;;;;;;16.33;65.07;100497.28;4444155;32;19989;-78
2022/10/31 01:51:12;;;;;;;;;;;;;;;16.22;65.58;100500.72;4434358;32;20031;-78
2022/10/31 01:53:39;;;;;;;;;;;;;;;16.46;64.78;100501.66;4442423;32;20000;-79
2022/10/31 01:56:06;;;;;;;;;;;;;;;16.49;64.54;100499.06;4444366;32;19977;-78
2022/10/31 01:58:33;;;;;;;;;;;;;;;16.62;64.28;100498.22;4434290;32;20000;-83
2022/10/31 02:01:00;;;;;;;;;;;;;;;16.69;63.84;100491.28;4429399;32;19970;-78
2022/10/31 02:03:33;;;;;;;;;;;;;;;16.53;64.27;100490.38;4414296;32;20000;-78
2022/10/31 02:06:00;;;;;;;;;;;;;;;16.72;63.66;100486.94;4425546;32;19990;-79
2022/10/31 02:08:28;;;;;;;;;;;;;;;16.00;66.34;100493.69;4415469;32;20307;-78
2022/10/31 02:10:57;;;;;;;;;;;;;;;15.84;67.19;100492.72;4419270;32;19996;-78
2022/10/31 02:13:24;;;;;;;;;;;;;;;16.00;66.47;100489.31;4421089;32;20013;-77
2022/10/31 02:15:53;;;;;;;;;;;;;;;16.03;66.21;100493.69;4428789;32;19998;-81
2022/10/31 02:18:19;;;;;;;;;;;;;;;16.19;65.42;100485.06;4431242;32;19969;-77
2022/10/31 02:21:05;;;;;;;;;;;;;;;16.09;65.99;100485.88;4431280;32;19996;-78
2022/10/31 02:23:33;;;;;;;;;;;;;;;16.13;65.89;100482.41;4431082;32;20012;-82
2022/10/31 02:26:03;;;;;;;;;;;;;;;16.30;65.36;100481.59;4432742;32;19988;-77
2022/10/31 02:28:33;;;;;;;;;;;;;;;16.15;65.84;100478.09;4430954;32;20037;-78
2022/10/31 02:31:03;;;;;;;;;;;;;;;16.02;66.00;100481.50;4430506;32;19970;-78
2022/10/31 02:33:38;;;;;;;;;;;;;;;16.21;65.04;100491.16;4414344;32;19989;-78
2022/10/31 02:36:05;;;;;;;;;;;;;;;16.44;64.21;100488.63;4420219;32;20310;-80
2022/10/31 02:38:44;;;;;;;;;;;;;;;15.70;66.57;100494.41;4425650;32;19989;-78
2022/10/31 02:41:16;;;;;;;;;;;;;;;15.93;65.78;100489.31;4430391;32;19994;-78
2022/10/31 02:43:45;;;;;;;;;;;;;;;15.82;66.14;100491.84;4424345;32;20353;-78
2022/10/31 02:46:36;;;;;;;;;;;;;;;15.89;66.01;100484.91;4410363;32;5001196;-80
2022/10/31 02:49:06;;;;;;;;;;;;;;;16.08;65.12;100492.00;4430474;32;19981;-79
2022/10/31 02:51:33;;;;;;;;;;;;;;;15.69;66.33;100498.72;4444004;32;20000;-79
2022/10/31 02:54:00;;;;;;;;;;;;;;;16.02;65.33;100491.97;4431468;32;20807;-78
2022/10/31 02:56:27;;;;;;;;;;;;;;;16.28;64.39;100505.97;4430494;32;19992;-77
2022/10/31 02:58:56;;;;;;;;;;;;;;;16.23;64.65;100496.38;4432534;32;20048;-77
2022/10/31 03:01:29;;;;;;;;;;;;;;;16.21;64.89;100499.00;4418197;32;20059;-78
2022/10/31 03:04:06;;;;;;;;;;;;;;;16.10;65.13;100495.47;4435060;32;19981;-81
2022/10/31 03:06:45;;;;;;;;;;;;;;;16.12;65.09;100496.34;4427647;32;19982;-78
2022/10/31 03:09:32;;;;;;;;;;;;;;;16.21;64.93;100501.63;4420083;32;19978;-83
2022/10/31 03:12:02;;;;;;;;;;;;;;;15.99;65.51;100494.56;4428410;32;19994;-77
2022/10/31 03:14:32;;;;;;;;;;;;;;;16.31;64.63;100493.81;4415578;32;19994;-79
2022/10/31 03:16:59;;;;;;;;;;;;;;;16.19;64.96;100489.41;4426327;32;20266;-77
2022/10/31 03:19:29;;;;;;;;;;;;;;;16.18;64.97;100499.00;4426315;32;20394;-77
2022/10/31 03:22:07;;;;;;;;;;;;;;;16.08;65.02;100499.81;4425716;32;19989;-79
2022/10/31 03:24:36;;;;;;;;;;;;;;;16.11;65.22;100507.63;4428583;32;19990;-78
2022/10/31 03:27:03;;;;;;;;;;;;;;;16.00;65.45;100509.34;4418963;32;19974;-79
2022/10/31 03:29:30;;;;;;;;;;;;;;;15.93;65.83;100508.44;4428013;32;20035;-78
2022/10/31 03:31:58;;;;;;;;;;;;;;;16.15;65.10;100509.41;4415421;32;20442;-80
2022/10/31 03:34:25;;;;;;;;;;;;;;;16.13;65.15;100510.28;4420456;32;19986;-78
2022/10/31 03:36:54;;;;;;;;;;;;;;;16.04;65.49;100516.31;4421885;32;19978;-78
2022/10/31 03:39:21;;;;;;;;;;;;;;;16.04;65.48;100505.88;4429714;32;19981;-78
2022/10/31 03:41:51;;;;;;;;;;;;;;;16.17;64.72;100512.91;4440983;32;20038;-78
2022/10/31 03:44:17;;;;;;;;;;;;;;;16.16;64.76;100516.38;4443695;32;20038;-78
2022/10/31 03:46:46;;;;;;;;;;;;;;;16.27;64.37;100513.81;4450122;32;19987;-79
2022/10/31 03:49:13;;;;;;;;;;;;;;;16.19;64.74;100505.94;4431835;32;19992;-78
2022/10/31 03:51:42;;;;;;;;;;;;;;;16.43;63.63;100510.41;4125699;32;10000652;-78
2022/10/31 03:54:14;;;;;;;;;;;;;;;16.02;65.31;100512.84;4450523;32;19982;-78
2022/10/31 03:56:44;;;;;;;;;;;;;;;16.26;64.50;100517.28;4431366;32;20001;-83
2022/10/31 03:59:16;;;;;;;;;;;;;;;16.39;64.09;100518.22;4441398;32;20380;-78
2022/10/31 04:01:44;;;;;;;;;;;;;;;16.21;64.79;100519.03;4430714;32;20040;-78
2022/10/31 04:04:11;;;;;;;;;;;;;;;16.27;64.54;100519.91;4430540;32;20039;-78
2022/10/31 04:06:38;;;;;;;;;;;;;;;16.24;64.57;100525.13;4434896;32;19997;-78
2022/10/31 04:09:05;;;;;;;;;;;;;;;16.36;64.24;100520.81;4432514;32;20754;-78
2022/10/31 04:11:35;;;;;;;;;;;;;;;16.39;64.02;100523.44;4442996;32;20000;-77
2022/10/31 04:14:04;;;;;;;;;;;;;;;16.27;64.46;100526.88;4431002;32;19996;-77
2022/10/31 04:16:30;;;;;;;;;;;;;;;16.10;64.67;100526.81;4430606;32;20292;-78
2022/10/31 04:18:57;;;;;;;;;;;;;;;15.80;65.30;100520.56;4436221;32;19981;-79
2022/10/31 04:21:29;;;;;;;;;;;;;;;16.28;63.88;100524.28;4283728;32;5001648;-82
2022/10/31 04:23:56;;;;;;;;;;;;;;;16.17;64.21;100528.56;4337629;32;19985;-78
2022/10/31 04:26:24;;;;;;;;;;;;;;;16.27;64.11;100525.16;4432890;32;19977;-79
2022/10/31 04:28:50;;;;;;;;;;;;;;;16.31;64.05;100525.16;4438250;32;19977;-78
2022/10/31 04:31:17;;;;;;;;;;;;;;;16.20;64.13;100528.56;4439800;32;20007;-78
2022/10/31 04:33:44;;;;;;;;;;;;;;;16.32;63.57;100527.75;4440312;32;20003;-78
2022/10/31 04:36:11;;;;;;;;;;;;;;;16.34;63.01;100535.63;4431667;32;19984;-79
2022/10/31 04:38:38;;;;;;;;;;;;;;;16.15;63.86;100539.91;4431609;32;20038;-78
2022/10/31 04:41:08;;;;;;;;;;;;;;;16.25;63.44;100545.16;4434561;32;19993;-78
2022/10/31 04:43:36;;;;;;;;;;;;;;;16.01;64.16;100542.41;4438037;32;20027;-78
2022/10/31 04:46:02;;;;;;;;;;;;;;;16.25;63.43;100546.91;4437729;32;20474;-79
2022/10/31 04:48:29;;;;;;;;;;;;;;;16.28;63.09;100542.56;4434085;32;20488;-78
2022/10/31 04:50:59;;;;;;;;;;;;;;;16.16;63.72;100537.28;4431697;32;19977;-78
2022/10/31 04:53:26;;;;;;;;;;;;;;;15.94;64.37;100545.87;4434600;32;20350;-78
2022/10/31 04:55:57;;;;;;;;;;;;;;;16.08;64.05;100541.63;4437173;32;20512;-78
2022/10/31 04:58:24;;;;;;;;;;;;;;;16.10;63.96;100542.47;4433651;32;20359;-78
2022/10/31 05:00:51;;;;;;;;;;;;;;;16.13;63.81;100552.06;4431778;32;19970;-78
2022/10/31 05:03:19;;;;;;;;;;;;;;;16.25;63.45;100547.78;4418692;32;20039;-77
2022/10/31 05:05:45;;;;;;;;;;;;;;;16.03;64.04;100545.94;4422947;32;20057;-78
2022/10/31 05:08:12;;;;;;;;;;;;;;;16.13;63.89;100552.94;4416443;32;20028;-81
2022/10/31 05:10:40;;;;;;;;;;;;;;;16.14;63.72;100552.06;4424154;32;19977;-78
2022/10/31 05:13:07;;;;;;;;;;;;;;;16.07;63.86;100552.03;4427623;32;20005;-78
2022/10/31 05:15:38;;;;;;;;;;;;;;;16.23;63.50;100554.72;4116417;32;10004338;-78
2022/10/31 05:18:07;;;;;;;;;;;;;;;16.17;63.87;100544.25;4416246;32;19966;-78
2022/10/31 05:20:37;;;;;;;;;;;;;;;16.24;63.61;100546.03;4415900;32;19982;-77
2022/10/31 05:23:04;;;;;;;;;;;;;;;16.24;63.58;100540.81;4422484;32;19986;-77
2022/10/31 05:25:31;;;;;;;;;;;;;;;16.06;64.23;100538.09;4431471;32;19992;-79
2022/10/31 05:28:00;;;;;;;;;;;;;;;16.09;64.02;100551.19;4432047;32;19985;-78
2022/10/31 05:30:28;;;;;;;;;;;;;;;16.15;64.21;100550.34;4431564;32;20295;-78
2022/10/31 05:32:56;;;;;;;;;;;;;;;16.16;64.21;100555.56;4431672;32;20022;-77
2022/10/31 05:35:28;;;;;;;;;;;;;;;15.94;64.90;100535.44;4424831;32;19992;-78
2022/10/31 05:38:00;;;;;;;;;;;;;;;15.99;64.92;100544.16;4417156;32;19986;-78
2022/10/31 05:40:27;;;;;;;;;;;;;;;15.95;65.09;100534.56;4423752;32;19982;-78
2022/10/31 05:42:54;;;;;;;;;;;;;;;16.22;64.23;100533.81;4416737;32;19986;-78
2022/10/31 05:45:21;;;;;;;;;;;;;;;16.24;64.20;100556.47;4421295;32;19990;-78
2022/10/31 05:47:52;;;;;;;;;;;;;;;16.30;64.15;100554.75;4414252;32;19982;-78
2022/10/31 05:50:20;;;;;;;;;;;;;;;16.18;64.52;100553.84;4427028;32;19974;-78
2022/10/31 05:52:54;;;;;;;;;;;;;;;16.16;64.78;100558.19;4422617;32;20006;-78
2022/10/31 05:55:23;;;;;;;;;;;;;;;16.28;63.89;100555.63;4415755;32;19996;-78
2022/10/31 05:57:51;;;;;;;;;;;;;;;16.16;64.68;100563.41;4421645;32;19997;-78
2022/10/31 06:00:18;;;;;;;;;;;;;;;16.33;63.99;100559.97;4417683;32;19982;-79
2022/10/31 06:02:46;;;;;;;;;;;;;;;16.22;64.57;100560.81;4414607;32;20795;-76
2022/10/31 06:05:14;;;;;;;;;;;;;;;16.14;64.60;100569.47;4419624;32;19993;-78
2022/10/31 06:07:41;;;;;;;;;;;;;;;16.40;63.80;100561.75;4427784;32;19996;-76
2022/10/31 06:10:08;;;;;;;;;;;;;;;16.09;64.78;100556.41;4437835;32;20040;-77
2022/10/31 06:12:38;;;;;;;;;;;;;;;16.19;64.32;100567.78;4434760;32;20327;-75
2022/10/31 06:15:07;;;;;;;;;;;;;;;16.01;65.37;100561.56;4402350;32;917077;-77
2022/10/31 06:17:37;;;;;;;;;;;;;;;16.04;65.62;100563.34;4442038;32;19982;-78
2022/10/31 06:20:06;;;;;;;;;;;;;;;16.26;64.91;100574.75;4441844;32;20424;-75
2022/10/31 06:22:35;;;;;;;;;;;;;;;16.31;64.54;100566.97;4431387;32;20331;-78
2022/10/31 06:25:02;;;;;;;;;;;;;;;16.34;64.71;100561.75;4439590;32;20397;-77
2022/10/31 06:27:30;;;;;;;;;;;;;;;16.31;64.79;100577.41;4434707;32;19982;-78
2022/10/31 06:29:58;;;;;;;;;;;;;;;16.18;65.25;100566.91;4435995;32;20124;-79
2022/10/31 06:32:26;;;;;;;;;;;;;;;16.24;64.82;100556.47;4431833;32;20033;-80
2022/10/31 06:34:53;;;;;;;;;;;;;;;16.27;64.79;100572.19;4437233;32;20045;-77
2022/10/31 06:37:20;;;;;;;;;;;;;;;16.37;64.58;100572.19;4430905;32;20013;-77
2022/10/31 06:39:47;;;;;;;;;;;;;;;16.44;64.12;100569.63;4430709;32;19978;-78
2022/10/31 06:42:15;;;;;;;;;;;;;;;16.27;64.63;100572.19;4442237;32;20006;-78
2022/10/31 06:44:42;;;;;;;;;;;;;;;16.30;64.25;100573.91;4430767;32;20030;-79
2022/10/31 06:47:15;;;;;;;;;;;;;;;16.23;64.69;100570.38;4430123;32;20334;-77
2022/10/31 06:49:42;;;;;;;;;;;;;;;16.25;64.49;100571.28;4429097;32;20520;-78
2022/10/31 06:52:09;;;;;;;;;;;;;;;16.26;64.47;100580.84;4431286;32;20052;-82
2022/10/31 06:54:36;;;;;;;;;;;;;;;16.27;64.54;100587.84;4434823;32;19982;-78
2022/10/31 06:57:03;;;;;;;;;;;;;;;16.36;64.48;100593.97;4437388;32;20334;-78
2022/10/31 06:59:30;;;;;;;;;;;;;;;16.40;64.02;100599.22;4431723;32;20000;-80
2022/10/31 07:01:58;;;;;;;;;;;;;;;16.43;63.82;100595.72;4433102;32;19986;-78
2022/10/31 07:04:25;;;;;;;;;;;;;;;16.59;63.04;100594.94;4439039;32;20008;-77
2022/10/31 07:06:52;;;;;;;;;;;;;;;16.44;63.92;100594.88;4440274;32;19965;-78
2022/10/31 07:09:19;;;;;;;;;;;;;;;16.20;64.37;100601.72;4445510;32;19977;-78
2022/10/31 07:11:46;;;;;;;;;;;;;;;16.33;64.03;100596.56;4438966;32;19996;-82
2022/10/31 07:14:13;;;;;;;;;;;;;;;16.46;63.66;100603.59;4455319;32;20314;-78
2022/10/31 07:16:41;;;;;;;;;;;;;;;16.40;63.78;100603.56;4440802;32;19981;-78
2022/10/31 07:19:09;;;;;;;;;;;;;;;16.20;64.47;100596.50;4432265;32;20019;-79
2022/10/31 07:21:36;;;;;;;;;;;;;;;16.26;64.03;100606.97;4433104;32;19996;-78
2022/10/31 07:24:03;;;;;;;;;;;;;;;16.30;63.91;100607.00;4432952;32;20020;-78
2022/10/31 07:26:39;;;;;;;;;;;;;;;16.16;64.56;100615.63;4439786;32;19984;-80
2022/10/31 07:29:06;;;;;;;;;;;;;;;16.22;64.35;100620.91;4447980;32;19992;-87
2022/10/31 07:31:33;;;;;;;;;;;;;;;16.23;64.49;100617.41;4425698;32;20353;-79
2022/10/31 07:34:00;;;;;;;;;;;;;;;16.12;65.10;100619.09;4430987;32;20020;-82
2022/10/31 07:36:31;;;;;;;;;;;;;;;15.80;65.98;100619.78;4435517;32;19973;-86
2022/10/31 07:38:58;;;;;;;;;;;;;;;16.11;65.22;100617.34;4431113;32;19989;-83
2022/10/31 07:41:25;;;;;;;;;;;;;;;16.31;64.54;100614.88;4427636;32;19986;-77
2022/10/31 07:43:52;;;;;;;;;;;;;;;16.42;64.29;100618.38;4431067;32;20362;-77
2022/10/31 07:46:26;;;;;;;;;;;;;;;16.14;64.95;100617.34;4430057;32;19974;-79
2022/10/31 07:48:55;;;;;;;;;;;;;;;16.27;64.48;100613.06;4431306;32;20350;-85
2022/10/31 07:51:29;;;;;;;;;;;;;;;16.34;64.46;100611.41;4431732;32;19996;-77
2022/10/31 07:53:57;;;;;;;;;;;;;;;15.85;66.33;100595.41;4431851;32;20053;-78
2022/10/31 07:56:27;;;;;;;;;;;;;;;16.09;65.29;100598.19;4430034;32;19982;-83
2022/10/31 07:58:53;;;;;;;;;;;;;;;16.23;64.77;100606.97;4430820;32;20023;-85
2022/10/31 08:01:20;;;;;;;;;;;;;;;16.42;63.81;100607.06;4431278;32;19990;-77
2022/10/31 08:03:48;;;;;;;;;;;;;;;16.16;64.98;100605.19;4428122;32;20295;-79
2022/10/31 08:06:27;;;;;;;;;;;;;;;16.18;65.22;100613.91;4428572;32;19980;-77
2022/10/31 08:08:56;;;;;;;;;;;;;;;16.19;64.90;100620.88;4427732;32;19992;-78
2022/10/31 08:11:23;;;;;;;;;;;;;;;16.33;64.55;100614.84;4424895;32;20021;-76
2022/10/31 08:13:50;;;;;;;;;;;;;;;16.08;65.50;100611.22;4427579;32;20039;-78
2022/10/31 08:16:17;;;;;;;;;;;;;;;15.99;65.71;100614.69;4429684;32;19978;-79
2022/10/31 08:18:47;;;;;;;;;;;;;;;15.94;66.15;100618.97;4425973;32;19977;-80
2022/10/31 08:21:14;;;;;;;;;;;;;;;16.19;64.95;100615.66;4422202;32;19994;-76
2022/10/31 08:23:41;;;;;;;;;;;;;;;16.26;64.89;100616.56;4415574;32;19986;-76
2022/10/31 08:26:08;;;;;;;;;;;;;;;16.49;63.95;100617.53;4416731;32;20008;-77
2022/10/31 08:28:34;;;;;;;;;;;;;;;16.34;64.63;100629.69;4422119;32;20020;-78
2022/10/31 08:31:02;;;;;;;;;;;;;;;16.34;64.57;100619.25;4419134;32;19981;-76
2022/10/31 08:33:36;;;;;;;;;;;;;;;16.20;65.13;100622.63;4424414;32;20000;-82
2022/10/31 08:36:07;;;;;;;;;;;;;;;16.00;65.40;100629.47;4417976;32;19978;-75
2022/10/31 08:38:35;;;;;;;;;;;;;;;16.15;65.46;100618.25;4422993;32;19999;-77
2022/10/31 08:41:02;;;;;;;;;;;;;;;16.11;65.37;100617.34;4409747;32;19986;-78
2022/10/31 08:43:29;;;;;;;;;;;;;;;16.35;64.74;100615.75;4426895;32;20020;-77
2022/10/31 08:45:55;;;;;;;;;;;;;;;16.30;65.28;100617.44;4415341;32;20725;-87
2022/10/31 08:48:26;;;;;;;;;;;;;;;16.55;64.39;100614.09;4421503;32;20347;-85
2022/10/31 08:50:55;;;;;;;;;;;;;;;16.39;64.75;100617.50;4432980;32;20000;-82
2022/10/31 08:53:22;;;;;;;;;;;;;;;16.49;64.53;100614.06;4428758;32;19985;-77
2022/10/31 08:55:51;;;;;;;;;;;;;;;16.45;64.84;100623.63;4424744;32;19991;-78
2022/10/31 08:58:20;;;;;;;;;;;;;;;16.53;64.73;100621.06;4415359;32;19993;-82
2022/10/31 09:00:47;;;;;;;;;;;;;;;16.60;64.64;100627.19;4421344;32;20391;-77
2022/10/31 09:03:17;;;;;;;;;;;;;;;16.67;64.39;100629.81;4425785;32;19994;-77
2022/10/31 09:05:45;;;;;;;;;;;;;;;16.63;64.35;100627.19;4426526;32;20048;-77
2022/10/31 09:08:12;;;;;;;;;;;;;;;16.80;63.83;100624.69;4425940;32;20731;-78
2022/10/31 09:10:42;;;;;;;;;;;;;;;16.78;63.58;100621.16;4421775;32;20012;-78
2022/10/31 09:13:11;;;;;;;;;;;;;;;16.79;63.59;100629.03;4421146;32;19978;-77
2022/10/31 09:15:41;;;;;;;;;;;;;;;16.57;64.49;100633.28;4415754;32;20333;-77
2022/10/31 09:18:09;;;;;;;;;;;;;;;16.95;62.92;100630.81;4416800;32;19982;-85
2022/10/31 09:20:36;;;;;;;;;;;;;;;16.62;64.12;100636.75;4420234;32;19985;-77
2022/10/31 09:23:08;;;;;;;;;;;;;;;16.50;64.77;100631.50;4425489;32;20031;-77
2022/10/31 09:25:36;;;;;;;;;;;;;;;16.52;64.67;100632.38;4422278;32;20032;-78
2022/10/31 09:28:05;;;;;;;;;;;;;;;16.60;64.45;100632.41;4417827;32;19997;-77
2022/10/31 09:30:32;;;;;;;;;;;;;;;16.62;64.43;100642.00;3963257;32;10015632;-78
2022/10/31 09:33:00;;;;;;;;;;;;;;;16.70;63.93;100629.84;4415529;32;20360;-77
2022/10/31 09:35:27;;;;;;;;;;;;;;;16.76;63.82;100628.16;4424267;32;19974;-77
2022/10/31 09:37:55;;;;;;;;;;;;;;;16.95;63.33;100638.66;4426679;32;19982;-78
2022/10/31 09:40:32;;;;;;;;;;;;;;;16.74;63.74;100638.56;4427324;32;19997;-77
2022/10/31 09:43:19;;;;;;;;;;;;;;;16.94;63.13;100634.31;4416189;32;20031;-77
2022/10/31 09:45:53;;;;;;;;;;;;;;;16.83;63.67;100635.16;4424269;32;19982;-77
2022/10/31 09:48:25;;;;;;;;;;;;;;;16.68;64.05;100639.41;4416166;32;19989;-78
2022/10/31 09:50:58;;;;;;;;;;;;;;;16.68;63.84;100636.78;4416316;32;20042;-77
2022/10/31 09:53:31;;;;;;;;;;;;;;;16.44;64.72;100636.69;4428925;32;20319;-77
2022/10/31 09:55:58;;;;;;;;;;;;;;;16.48;64.68;100638.44;4416443;32;19982;-78
2022/10/31 09:58:25;;;;;;;;;;;;;;;16.71;63.89;100634.19;4415993;32;20023;-77
2022/10/31 10:00:53;;;;;;;;;;;;;;;16.61;63.90;100634.16;4415828;32;20036;-79
2022/10/31 10:03:29;;;;;;;;;;;;;;;16.54;64.82;100633.25;4416328;32;20302;-77
2022/10/31 10:06:01;;;;;;;;;;;;;;;16.71;64.34;100626.34;4422248;32;20440;-79
2022/10/31 10:08:30;;;;;;;;;;;;;;;16.59;64.38;100626.31;4431333;32;19981;-77
2022/10/31 10:11:16;;;;;;;;;;;;;;;16.54;64.64;100633.25;4429089;32;19985;-77
2022/10/31 10:13:47;;;;;;;;;;;;;;;16.60;64.09;100628.06;4415815;32;20046;-77
2022/10/31 10:16:32;;;;;;;;;;;;;;;16.27;65.67;100629.66;4427315;32;19986;-77
2022/10/31 10:19:15;;;;;;;;;;;;;;;16.45;65.06;100622.75;4426539;32;19986;-78
2022/10/31 10:21:45;;;;;;;;;;;;;;;16.27;65.84;100629.66;4427798;32;19981;-80
2022/10/31 10:24:17;;;;;;;;;;;;;;;16.44;65.08;100626.25;4426842;32;20319;-80
2022/10/31 10:26:47;;;;;;;;;;;;;;;16.16;65.77;100620.00;4427026;32;20026;-77
2022/10/31 10:29:31;;;;;;;;;;;;;;;16.54;64.80;100621.94;4433946;32;20418;-77
2022/10/31 10:31:58;;;;;;;;;;;;;;;16.58;64.60;100613.22;4414451;32;19997;-78
2022/10/31 10:34:34;;;;;;;;;;;;;;;16.85;63.59;100617.72;4129432;32;20032;-78
2022/10/31 10:37:04;;;;;;;;;;;;;;;16.65;64.28;100621.09;4067162;32;20443;-77
2022/10/31 10:39:41;;;;;;;;;;;;;;;16.80;63.64;100615.09;4180513;32;19994;-77
2022/10/31 10:47:43;;;;;;;;;;;;;;;16.86;63.69;100619.47;4422987;32;20001;-82
2022/10/31 10:50:37;;;;;;;;;;;;;;;16.97;63.18;100609.87;4419489;32;19981;-77
2022/10/31 10:53:03;;;;;;;;;;;;;;;17.11;62.50;100610.81;4423664;32;20315;-82
2022/10/31 10:55:30;;;;;;;;;;;;;;;17.08;62.67;100610.78;4432441;32;20033;-78
2022/10/31 10:58:04;;;;;;;;;;;;;;;16.74;63.86;100615.91;4427278;32;20020;-77
2022/10/31 11:00:32;;;;;;;;;;;;;;;16.97;62.95;100612.50;4428458;32;19978;-77
2022/10/31 11:02:59;;;;;;;;;;;;;;;16.76;63.34;100612.47;4417632;32;20008;-76
2022/10/31 11:05:36;;;;;;;;;;;;;;;16.76;63.78;100617.69;4424115;32;20395;-77
2022/10/31 11:08:03;;;;;;;;;;;;;;;16.39;64.83;100607.03;4417427;32;19985;-77
2022/10/31 11:10:30;;;;;;;;;;;;;;;16.49;64.97;100608.81;4421244;32;19992;-77
2022/10/31 11:13:12;;;;;;;;;;;;;;;16.91;63.26;100607.25;4427325;32;20571;-78
2022/10/31 11:15:51;;;;;;;;;;;;;;;16.70;64.22;100603.69;4423907;32;19981;-77
2022/10/31 11:18:21;;;;;;;;;;;;;;;16.38;65.67;100605.31;4389024;32;19982;-77
2022/10/31 11:20:52;;;;;;;;;;;;;;;16.73;64.53;100605.44;4404297;32;19993;-87
2022/10/31 11:23:19;;;;;;;;;;;;;;;16.77;64.36;100601.12;4389238;32;20099;-83
2022/10/31 11:25:59;;;;;;;;;;;;;;;16.44;64.90;100594.88;4399659;32;20336;-83
2022/10/31 11:28:29;;;;;;;;;;;;;;;16.57;64.54;100596.69;4392465;32;19983;-82
2022/10/31 11:30:56;;;;;;;;;;;;;;;16.79;63.87;100595.03;4397455;32;20434;-78
2022/10/31 11:33:26;;;;;;;;;;;;;;;16.94;63.56;100591.56;4395464;32;19978;-81
2022/10/31 11:35:53;;;;;;;;;;;;;;;16.54;64.51;100591.44;4388130;32;19995;-78
2022/10/31 11:38:28;;;;;;;;;;;;;;;16.79;63.84;100602.03;4394854;32;20017;-88
2022/10/31 11:41:05;;;;;;;;;;;;;;;16.70;63.97;100593.22;4385680;32;19989;-87
2022/10/31 11:43:31;;;;;;;;;;;;;;;16.33;64.65;100591.34;4396031;32;20014;-87
2022/10/31 11:45:58;;;;;;;;;;;;;;;16.61;63.84;100590.59;4408968;32;19977;-81
2022/10/31 11:48:25;;;;;;;;;;;;;;;16.68;63.67;100584.50;4400616;32;19997;-80
2022/10/31 11:50:56;;;;;;;;;;;;;;;16.74;63.65;100594.97;4410299;32;19992;-83
2022/10/31 11:53:27;;;;;;;;;;;;;;;16.83;63.15;100588.06;4400330;32;20025;-84
2022/10/31 11:56:01;;;;;;;;;;;;;;;16.70;63.54;100588.00;4396879;32;20037;-81
2022/10/31 11:58:28;;;;;;;;;;;;;;;16.80;62.97;100588.06;4395329;32;19997;-83
2022/10/31 12:00:56;;;;;;;;;;;;;;;16.48;63.99;100591.41;4398014;32;19974;-78
2022/10/31 12:03:23;;;;;;;;;;;;;;;16.41;64.23;100595.75;4399827;32;19993;-78
2022/10/31 12:06:01;;;;;;;;;;;;;;;16.57;63.98;100586.22;4401426;32;19986;-83
2022/10/31 12:08:29;;;;;;;;;;;;;;;16.53;64.19;100589.69;4394928;32;19997;-82
2022/10/31 12:11:15;;;;;;;;;;;;;;;16.50;64.32;100584.47;4394871;32;20040;-83
2022/10/31 12:13:57;;;;;;;;;;;;;;;16.31;64.70;100587.88;4394810;32;19975;-84
2022/10/31 12:16:49;;;;;;;;;;;;;;;16.60;64.09;100591.47;4403798;32;19978;-85
2022/10/31 12:19:35;;;;;;;;;;;;;;;16.70;63.61;100595.84;4436596;32;20727;-81
2022/10/31 12:22:02;;;;;;;;;;;;;;;16.45;64.05;100592.25;4421086;32;20039;-79
2022/10/31 12:24:40;;;;;;;;;;;;;;;16.79;63.02;100586.34;4447545;32;20019;-81
2022/10/31 12:27:11;;;;;;;;;;;;;;;16.68;63.41;100592.34;4446016;32;19989;-79
2022/10/31 12:29:48;;;;;;;;;;;;;;;16.36;64.25;100578.28;4433268;32;20004;-77
2022/10/31 12:32:37;;;;;;;;;;;;;;;16.54;63.62;100586.22;4421422;32;19989;-83
2022/10/31 12:35:26;;;;;;;;;;;;;;;16.78;62.83;100582.81;4432500;32;20354;-86
2022/10/31 12:38:12;;;;;;;;;;;;;;;16.65;63.24;100576.66;4412339;32;19989;-82
2022/10/31 12:40:52;;;;;;;;;;;;;;;16.76;62.87;100576.72;4416198;32;20060;-84
2022/10/31 12:43:29;;;;;;;;;;;;;;;16.48;63.26;100580.97;4425294;32;20033;-77
2022/10/31 12:45:56;;;;;;;;;;;;;;;16.63;63.10;100586.25;4419816;32;19990;-82
2022/10/31 12:48:42;;;;;;;;;;;;;;;16.59;63.31;100587.13;4427204;32;19993;-81
2022/10/31 12:51:12;;;;;;;;;;;;;;;16.68;63.10;100583.63;4419256;32;19982;-83
2022/10/31 12:53:42;;;;;;;;;;;;;;;16.54;63.93;100580.97;4430275;32;19970;-88